Time;durP1;ratioP1;P1;durP2;ratioP2;P2;SDS_P1;SDS_P2;PMS_P1;PMS_P2;Temp;Humidity;BMP_temperature;BMP_pressure;BME280_temperature;BME280_humidity;BME280_pressure;Samples;Min_cycle;Max_cycle;Signal;HPM_P1;HPM_P2
2021/07/16 00:01:25;;;;;;;26.63;9.73;;;18.50;99.90;;;;;;12444073;28;20448;-41
2021/07/16 00:07:28;;;;;;;23.77;10.17;;;18.40;99.90;;;;;;12445257;28;20096;-42
2021/07/16 00:13:30;;;;;;;31.73;10.90;;;18.30;99.90;;;;;;12445319;28;20740;-40
2021/07/16 00:19:32;;;;;;;32.22;10.23;;;18.30;99.90;;;;;;12441127;28;20073;-42
2021/07/16 00:25:34;;;;;;;27.60;11.38;;;18.30;99.90;;;;;;12443408;28;20052;-44
2021/07/16 00:31:37;;;;;;;28.42;9.30;;;18.10;99.90;;;;;;12442901;28;20431;-40
2021/07/16 00:37:39;;;;;;;28.97;9.23;;;18.20;99.90;;;;;;12443437;28;20605;-41
2021/07/16 00:43:41;;;;;;;30.40;9.20;;;18.10;99.90;;;;;;12441370;28;21586;-40
2021/07/16 00:49:43;;;;;;;26.67;8.57;;;18.20;99.90;;;;;;12440551;28;20041;-40
2021/07/16 00:55:46;;;;;;;22.00;9.90;;;18.00;99.90;;;;;;12449994;28;20758;-40
2021/07/16 01:01:48;;;;;;;27.80;8.97;;;18.00;99.90;;;;;;12452455;28;20033;-40
2021/07/16 01:07:51;;;;;;;24.88;7.85;;;17.80;99.90;;;;;;12454311;28;20045;-40
2021/07/16 01:13:54;;;;;;;24.52;8.57;;;17.70;99.90;;;;;;12450902;28;20120;-41
2021/07/16 01:20:04;;;;;;;20.70;8.68;;;17.60;99.90;;;;;;12451659;28;20045;-40
2021/07/16 01:26:06;;;;;;;21.90;9.63;;;17.60;99.90;;;;;;12453419;28;20465;-41
2021/07/16 01:32:08;;;;;;;28.17;9.70;;;17.50;99.90;;;;;;12450754;28;20057;-40
2021/07/16 01:38:10;;;;;;;23.33;9.10;;;17.40;99.90;;;;;;12454940;28;20045;-41
2021/07/16 01:44:12;;;;;;;23.60;9.13;;;17.40;99.90;;;;;;12448656;28;20046;-40
2021/07/16 01:50:15;;;;;;;26.75;9.07;;;17.30;99.90;;;;;;12454056;28;20108;-41
2021/07/16 01:56:18;;;;;;;23.67;8.63;;;17.30;99.90;;;;;;12451492;28;20045;-41
2021/07/16 02:02:20;;;;;;;26.58;8.82;;;17.40;99.90;;;;;;12449400;28;20135;-41
2021/07/16 02:08:23;;;;;;;21.33;7.95;;;17.20;99.90;;;;;;12447948;28;20108;-41
2021/07/16 02:14:26;;;;;;;21.60;8.53;;;17.20;99.90;;;;;;12449004;28;20050;-40
2021/07/16 02:20:31;;;;;;;21.80;8.07;;;17.10;99.90;;;;;;12445919;28;20042;-41
2021/07/16 02:26:35;;;;;;;20.17;8.27;;;17.10;99.90;;;;;;12446357;28;20447;-40
2021/07/16 02:32:38;;;;;;;19.33;8.25;;;17.20;99.90;;;;;;12443110;28;20050;-40
2021/07/16 02:38:39;;;;;;;22.05;8.63;;;17.20;99.90;;;;;;12439970;28;20532;-41
2021/07/16 02:44:41;;;;;;;18.08;8.68;;;17.30;99.90;;;;;;12445122;28;20076;-40
2021/07/16 02:50:45;;;;;;;20.52;9.13;;;17.20;99.90;;;;;;12445580;28;20551;-41
2021/07/16 02:56:47;;;;;;;26.70;9.65;;;17.00;99.90;;;;;;12444108;28;20078;-41
2021/07/16 03:02:50;;;;;;;16.50;8.60;;;17.00;99.90;;;;;;12445525;28;20086;-40
2021/07/16 03:08:52;;;;;;;18.40;9.20;;;17.00;99.90;;;;;;12444904;28;20037;-43
2021/07/16 03:14:54;;;;;;;19.42;8.75;;;17.00;99.90;;;;;;12446006;28;20102;-40
2021/07/16 03:20:56;;;;;;;21.40;9.23;;;16.90;99.90;;;;;;12444374;28;20041;-40
2021/07/16 03:26:58;;;;;;;22.00;9.40;;;16.90;99.90;;;;;;12444791;28;20091;-40
2021/07/16 03:33:01;;;;;;;21.40;9.05;;;17.00;99.90;;;;;;12446168;28;20098;-42
2021/07/16 03:39:04;;;;;;;21.85;9.20;;;17.20;99.90;;;;;;12449473;28;20045;-41
2021/07/16 03:45:08;;;;;;;23.80;10.32;;;17.00;99.90;;;;;;12446013;28;20461;-40
2021/07/16 03:51:10;;;;;;;29.70;10.40;;;16.90;99.90;;;;;;12442385;28;20054;-41
2021/07/16 03:57:12;;;;;;;27.50;10.45;;;16.90;99.90;;;;;;12446173;28;20053;-40
2021/07/16 04:03:15;;;;;;;21.63;9.98;;;16.90;99.90;;;;;;12440267;28;20120;-40
2021/07/16 04:09:26;;;;;;;23.33;10.27;;;17.00;99.90;;;;;;12443558;28;20095;-42
2021/07/16 04:15:28;;;;;;;31.30;10.68;;;17.00;99.90;;;;;;12441305;28;20099;-41
2021/07/16 04:21:30;;;;;;;25.17;10.60;;;17.00;99.90;;;;;;12442026;28;20054;-42
2021/07/16 04:27:32;;;;;;;31.42;10.60;;;16.90;99.90;;;;;;12451754;28;20041;-41
2021/07/16 04:33:34;;;;;;;25.98;9.88;;;17.00;99.90;;;;;;12458390;28;20153;-40
2021/07/16 04:39:36;;;;;;;26.15;11.55;;;16.90;99.90;;;;;;12452432;28;20045;-40
2021/07/16 04:45:38;;;;;;;30.50;12.02;;;17.00;99.90;;;;;;12451819;28;20049;-40
2021/07/16 04:51:40;;;;;;;34.17;12.27;;;16.90;99.90;;;;;;12450230;28;20481;-43
2021/07/16 04:57:42;;;;;;;32.25;12.15;;;17.00;99.90;;;;;;12450901;28;20050;-41
2021/07/16 05:03:44;;;;;;;29.05;11.65;;;16.90;99.90;;;;;;12444381;28;20061;-39
2021/07/16 05:09:46;;;;;;;29.33;11.52;;;16.90;99.90;;;;;;12451608;28;20041;-43
2021/07/16 05:15:48;;;;;;;33.17;12.55;;;17.10;99.90;;;;;;12451846;28;20091;-41
2021/07/16 05:21:50;;;;;;;26.75;12.75;;;16.80;99.90;;;;;;12443602;28;20053;-41
2021/07/16 05:27:52;;;;;;;28.05;12.57;;;16.90;99.90;;;;;;12450220;28;20870;-48
2021/07/16 05:33:54;;;;;;;29.40;13.20;;;17.00;99.90;;;;;;12450394;28;20048;-40
2021/07/16 05:39:57;;;;;;;21.52;11.60;;;17.00;99.90;;;;;;12451766;28;20045;-41
2021/07/16 05:45:58;;;;;;;27.75;12.20;;;16.90;99.90;;;;;;12446687;28;20122;-42
2021/07/16 05:52:00;;;;;;;33.17;12.82;;;17.00;99.90;;;;;;12453296;28;20050;-41
2021/07/16 05:58:03;;;;;;;26.08;11.52;;;17.00;99.90;;;;;;12448904;28;20592;-41
2021/07/16 06:04:09;;;;;;;27.63;11.55;;;17.20;99.90;;;;;;12454869;28;20152;-41
2021/07/16 06:10:12;;;;;;;26.25;11.20;;;17.20;99.90;;;;;;12449158;28;20447;-42
2021/07/16 06:16:14;;;;;;;36.50;12.13;;;17.30;99.90;;;;;;12450314;28;20049;-42
2021/07/16 06:22:16;;;;;;;29.77;11.48;;;17.20;99.90;;;;;;12450596;28;20061;-42
2021/07/16 06:28:18;;;;;;;28.58;11.35;;;17.20;99.90;;;;;;12448641;28;20047;-42
2021/07/16 06:34:19;;;;;;;23.67;11.55;;;17.20;99.90;;;;;;12450830;28;20098;-42
2021/07/16 06:40:21;;;;;;;25.25;11.00;;;17.30;99.90;;;;;;12450100;28;20126;-42
2021/07/16 06:46:23;;;;;;;28.20;11.48;;;17.30;99.90;;;;;;12453221;28;20108;-43
2021/07/16 06:52:25;;;;;;;23.95;10.45;;;17.30;99.90;;;;;;12448032;28;20132;-43
2021/07/16 06:58:27;;;;;;;28.85;11.25;;;17.30;99.90;;;;;;12448506;28;20053;-42
2021/07/16 07:04:29;;;;;;;30.98;10.82;;;17.20;99.90;;;;;;12447043;28;20068;-42
2021/07/16 07:10:31;;;;;;;27.35;11.20;;;17.20;99.90;;;;;;12446809;28;20045;-44
2021/07/16 07:16:34;;;;;;;25.30;10.35;;;17.20;99.90;;;;;;12446498;28;20104;-42
2021/07/16 07:22:36;;;;;;;25.63;9.80;;;17.60;99.90;;;;;;12452210;28;20206;-42
2021/07/16 07:28:37;;;;;;;28.45;9.82;;;17.50;99.90;;;;;;12451847;28;20457;-43
2021/07/16 07:34:40;;;;;;;37.40;9.40;;;17.50;99.90;;;;;;12446247;28;20054;-44
2021/07/16 07:40:42;;;;;;;30.00;9.25;;;17.50;99.90;;;;;;12444791;28;20217;-42
2021/07/16 07:46:44;;;;;;;31.70;8.48;;;17.30;99.90;;;;;;12440161;28;20041;-43
2021/07/16 07:52:48;;;;;;;32.25;8.70;;;17.40;99.90;;;;;;12444111;28;20073;-45
2021/07/16 07:58:50;;;;;;;23.65;7.97;;;17.50;99.90;;;;;;12449017;28;20046;-44
2021/07/16 08:04:51;;;;;;;31.10;9.27;;;17.50;99.90;;;;;;12446705;28;20120;-42
2021/07/16 08:10:53;;;;;;;30.60;8.63;;;17.50;99.90;;;;;;12441474;28;20486;-42
2021/07/16 08:16:55;;;;;;;21.73;7.75;;;17.60;99.90;;;;;;12436151;28;20046;-45
2021/07/16 08:22:58;;;;;;;37.85;8.73;;;17.60;99.90;;;;;;12442056;28;20060;-43
2021/07/16 08:29:00;;;;;;;31.48;8.95;;;17.60;99.90;;;;;;12445543;28;20054;-42
2021/07/16 08:35:03;;;;;;;25.80;9.13;;;17.70;99.90;;;;;;12457513;23;20061;-84
2021/07/16 08:41:05;;;;;;;32.88;8.93;;;17.60;99.90;;;;;;12478888;28;20053;-83
2021/07/16 08:47:07;;;;;;;22.00;7.25;;;17.80;99.90;;;;;;12485952;28;20550;-84
2021/07/16 08:53:11;;;;;;;28.90;7.90;;;17.80;99.90;;;;;;12527782;28;20098;-84
2021/07/16 08:59:16;;;;;;;;;;;17.90;99.90;;;;;;12532014;28;20082;-84
2021/07/16 09:05:18;;;;;;;22.02;7.00;;;17.90;99.90;;;;;;12525707;28;20037;-84
2021/07/16 09:11:20;;;;;;;28.45;6.88;;;17.80;99.90;;;;;;12533450;28;20063;-84
2021/07/16 09:17:26;;;;;;;24.08;6.20;;;17.80;99.90;;;;;;12530534;28;20082;-83
2021/07/16 09:23:48;;;;;;;25.67;7.43;;;17.80;99.90;;;;;;12534666;28;20078;-84
2021/07/16 09:29:50;;;;;;;21.52;6.15;;;17.90;99.90;;;;;;12548845;28;20318;-84
2021/07/16 09:35:52;;;;;;;18.70;7.13;;;17.70;99.90;;;;;;12532160;28;20049;-84
2021/07/16 09:41:56;;;;;;;22.83;6.78;;;17.80;99.90;;;;;;12532779;28;20045;-84
2021/07/16 09:48:27;;;;;;;45.55;11.57;;;17.70;99.90;;;;;;12524548;28;20045;-84
2021/07/16 09:54:29;;;;;;;22.65;7.15;;;17.90;99.90;;;;;;12535850;28;20067;-84
2021/07/16 10:00:32;;;;;;;26.77;7.82;;;17.90;99.90;;;;;;12537359;28;20098;-85
2021/07/16 10:06:34;;;;;;;28.43;7.80;;;17.80;99.90;;;;;;12535433;28;20052;-84
2021/07/16 10:12:37;;;;;;;30.98;7.68;;;18.00;99.90;;;;;;12547113;28;20300;-84
2021/07/16 10:18:40;;;;;;;26.58;6.25;;;18.00;99.90;;;;;;12537498;28;20545;-84
2021/07/16 10:24:44;;;;;;;34.50;7.57;;;18.20;99.90;;;;;;12520801;28;20461;-84
2021/07/16 10:30:53;;;;;;;20.67;5.95;;;18.00;99.90;;;;;;12525946;28;20056;-85
2021/07/16 10:37:02;;;;;;;27.88;6.93;;;18.20;99.90;;;;;;12527455;28;21509;-85
2021/07/16 10:43:04;;;;;;;17.55;4.97;;;18.40;99.90;;;;;;12531222;28;20369;-85
2021/07/16 10:49:09;;;;;;;17.15;5.45;;;18.70;99.90;;;;;;12520120;28;20113;-85
2021/07/16 10:55:12;;;;;;;18.23;5.30;;;18.90;99.90;;;;;;12529091;28;20128;-85
2021/07/16 11:01:27;;;;;;;19.63;4.90;;;19.00;99.90;;;;;;12545669;28;20100;-84
2021/07/16 11:07:38;;;;;;;21.95;5.95;;;18.90;99.90;;;;;;12529895;28;20516;-84
2021/07/16 11:13:51;;;;;;;14.90;4.68;;;19.00;99.90;;;;;;12527465;28;20044;-84
2021/07/16 11:20:11;;;;;;;16.13;4.63;;;19.10;99.90;;;;;;12526901;28;20049;-85
2021/07/16 11:26:15;;;;;;;12.20;4.60;;;19.40;99.90;;;;;;12514101;28;20478;-85
2021/07/16 11:32:22;;;;;;;15.90;5.22;;;19.90;99.90;;;;;;12524875;28;20406;-85
2021/07/16 11:38:25;;;;;;;14.85;5.35;;;19.70;99.90;;;;;;12542547;28;20622;-87
2021/07/16 11:44:38;;;;;;;16.87;4.57;;;19.90;99.90;;;;;;12525280;28;20045;-85
2021/07/16 11:50:41;;;;;;;14.20;4.57;;;19.80;99.90;;;;;;12524532;28;20075;-86
2021/07/16 11:56:42;;;;;;;12.35;4.03;;;19.70;99.90;;;;;;12536402;28;20283;-84
2021/07/16 12:02:45;;;;;;;12.95;3.90;;;19.60;99.90;;;;;;12554398;28;20068;-85
2021/07/16 12:08:47;;;;;;;22.55;5.07;;;20.00;99.90;;;;;;12526540;28;20056;-86
2021/07/16 12:15:02;;;;;;;16.17;3.92;;;20.30;99.90;;;;;;12519917;28;20060;-84
2021/07/16 12:21:10;;;;;;;14.35;4.40;;;20.40;99.90;;;;;;12517068;28;20493;-85
2021/07/16 12:27:13;;;;;;;16.45;4.55;;;20.60;99.90;;;;;;12519682;28;20118;-85
2021/07/16 12:33:15;;;;;;;18.45;5.43;;;20.50;99.90;;;;;;12509387;28;20041;-84
2021/07/16 12:39:22;;;;;;;13.02;4.47;;;20.50;99.90;;;;;;12515683;28;20056;-85
2021/07/16 12:45:37;;;;;;;16.73;5.05;;;20.70;99.90;;;;;;12513381;28;20494;-85
2021/07/16 12:51:40;;;;;;;15.40;5.28;;;20.60;99.90;;;;;;12528692;28;20049;-85
2021/07/16 12:57:42;;;;;;;17.73;5.45;;;20.40;99.90;;;;;;12525793;28;21957;-84
2021/07/16 13:03:44;;;;;;;23.70;6.78;;;20.40;99.90;;;;;;12524499;28;20118;-85
2021/07/16 13:09:45;;;;;;;18.10;5.03;;;20.20;99.90;;;;;;12528299;28;20657;-84
2021/07/16 13:16:07;;;;;;;19.55;5.80;;;20.00;99.90;;;;;;12531549;28;20065;-84
2021/07/16 13:22:09;;;;;;;15.60;5.03;;;20.10;99.90;;;;;;12520939;28;20045;-85
2021/07/16 13:28:11;;;;;;;21.50;5.60;;;20.00;99.90;;;;;;12526306;28;20094;-84
2021/07/16 13:34:13;;;;;;;19.38;5.40;;;20.20;99.90;;;;;;12520954;28;20068;-85
2021/07/16 13:40:15;;;;;;;19.20;5.50;;;20.50;99.90;;;;;;12525844;28;20041;-84
2021/07/16 13:46:16;;;;;;;21.17;6.32;;;20.40;99.90;;;;;;12525000;28;20361;-86
2021/07/16 13:52:18;;;;;;;21.35;5.63;;;20.30;99.90;;;;;;12524073;28;20045;-84
2021/07/16 13:58:20;;;;;;;25.48;7.03;;;20.10;99.90;;;;;;12526686;28;20061;-86
2021/07/16 14:04:23;;;;;;;23.08;6.65;;;20.10;99.90;;;;;;12528054;28;20102;-84
2021/07/16 14:10:25;;;;;;;19.23;5.85;;;20.10;99.90;;;;;;12527494;28;20045;-86
2021/07/16 14:16:27;;;;;;;17.77;6.15;;;20.20;99.90;;;;;;12524425;28;20136;-85
2021/07/16 14:22:29;;;;;;;24.75;6.38;;;20.20;99.90;;;;;;12524736;28;20573;-85
2021/07/16 14:28:31;;;;;;;27.73;6.72;;;20.20;99.90;;;;;;12527174;28;20049;-85
2021/07/16 14:34:33;;;;;;;20.98;6.10;;;20.20;99.90;;;;;;12522878;28;21893;-85
2021/07/16 14:40:36;;;;;;;19.70;6.30;;;20.40;99.90;;;;;;12531126;28;20136;-85
2021/07/16 14:46:38;;;;;;;24.13;6.50;;;20.50;99.90;;;;;;12529262;28;20176;-85
2021/07/16 14:52:40;;;;;;;21.13;6.38;;;20.50;99.90;;;;;;12524584;28;20045;-85
2021/07/16 14:58:42;;;;;;;21.25;5.95;;;20.70;99.90;;;;;;12526240;28;20129;-85
2021/07/16 15:04:44;;;;;;;27.08;6.65;;;20.60;99.90;;;;;;12515971;28;20073;-85
2021/07/16 15:10:46;;;;;;;22.45;6.22;;;20.60;99.90;;;;;;12525208;28;20049;-86
2021/07/16 15:16:48;;;;;;;24.85;5.95;;;20.50;99.90;;;;;;12523514;28;20475;-84
2021/07/16 15:22:50;;;;;;;24.45;6.13;;;20.50;99.90;;;;;;12523295;28;20052;-85
2021/07/16 15:28:53;;;;;;;22.95;6.35;;;20.60;99.90;;;;;;12525724;28;20053;-87
2021/07/16 15:34:55;;;;;;;23.95;6.18;;;20.70;99.90;;;;;;12523667;28;20582;-85
2021/07/16 15:40:57;;;;;;;22.00;6.03;;;20.70;99.90;;;;;;12557355;28;20127;-85
2021/07/16 15:46:59;;;;;;;23.20;6.60;;;20.70;99.90;;;;;;12538842;28;20482;-85
2021/07/16 15:53:02;;;;;;;26.15;6.50;;;20.80;99.90;;;;;;12523609;28;20049;-84
2021/07/16 15:59:04;;;;;;;22.50;5.90;;;20.60;99.90;;;;;;12523089;28;20057;-85
2021/07/16 16:05:07;;;;;;;20.73;6.13;;;20.60;99.90;;;;;;12519759;28;20122;-85
2021/07/16 16:11:09;;;;;;;21.00;6.07;;;20.60;99.90;;;;;;12520015;28;20437;-84
2021/07/16 16:17:11;;;;;;;20.23;5.95;;;20.50;99.90;;;;;;12523280;28;20106;-84
2021/07/16 16:23:13;;;;;;;24.63;5.93;;;20.40;99.90;;;;;;12538087;28;20079;-84
2021/07/16 16:29:14;;;;;;;18.13;6.22;;;20.50;99.90;;;;;;12533158;28;20048;-85
2021/07/16 16:35:17;;;;;;;17.17;5.82;;;20.50;99.90;;;;;;12529587;28;20065;-85
2021/07/16 16:41:19;;;;;;;23.00;7.10;;;20.50;99.90;;;;;;12527451;28;20072;-85
2021/07/16 16:47:21;;;;;;;24.23;6.57;;;20.50;99.90;;;;;;12528513;28;20100;-84
2021/07/16 16:53:23;;;;;;;32.20;6.60;;;20.50;99.90;;;;;;12524807;28;20145;-85
2021/07/16 16:59:25;;;;;;;22.08;6.07;;;20.60;99.90;;;;;;12525633;28;20065;-85
2021/07/16 17:05:26;;;;;;;27.00;6.82;;;20.40;99.90;;;;;;12527997;28;20044;-85
2021/07/16 17:11:28;;;;;;;22.83;6.35;;;20.30;99.90;;;;;;12529686;28;20461;-85
2021/07/16 17:17:31;;;;;;;24.23;7.53;;;20.30;99.90;;;;;;12532263;28;20094;-85
2021/07/16 17:23:33;;;;;;;21.45;7.03;;;20.30;99.90;;;;;;12530213;28;20135;-84
2021/07/16 17:29:35;;;;;;;25.70;6.93;;;20.30;99.90;;;;;;12534612;28;20098;-85
2021/07/16 17:35:37;;;;;;;21.35;7.03;;;20.40;99.90;;;;;;12525537;28;20060;-87
2021/07/16 17:41:39;;;;;;;32.08;7.13;;;20.40;99.90;;;;;;12528286;28;20731;-85
2021/07/16 17:47:42;;;;;;;23.83;7.75;;;20.40;99.90;;;;;;12535124;28;20119;-84
2021/07/16 17:53:44;;;;;;;28.20;8.13;;;20.40;99.90;;;;;;12548324;28;20041;-85
2021/07/16 17:59:45;;;;;;;33.17;7.90;;;20.30;99.90;;;;;;12538349;28;20049;-84
2021/07/16 18:05:49;;;;;;;28.02;7.78;;;20.20;99.90;;;;;;12531822;28;20040;-84
2021/07/16 18:11:51;;;;;;;25.05;8.80;;;20.20;99.90;;;;;;12531239;28;20041;-85
2021/07/16 18:17:54;;;;;;;29.35;8.10;;;20.20;99.90;;;;;;12532082;28;20045;-84
2021/07/16 18:23:58;;;;;;;22.37;7.90;;;20.20;99.90;;;;;;12514857;28;20045;-85
2021/07/16 18:30:00;;;;;;;22.25;8.00;;;20.20;99.90;;;;;;12527895;28;20056;-85
2021/07/16 18:36:04;;;;;;;23.33;8.32;;;20.20;99.90;;;;;;12529482;28;20048;-85
2021/07/16 18:42:06;;;;;;;;;;;20.10;99.90;;;;;;12524037;28;20074;-85
2021/07/16 18:48:08;;;;;;;25.58;9.13;;;20.00;99.90;;;;;;12539934;28;19929;-85
2021/07/16 18:54:10;;;;;;;29.60;9.20;;;20.10;99.90;;;;;;12528579;28;20070;-85
2021/07/16 19:00:17;;;;;;;25.23;9.00;;;20.10;99.90;;;;;;12524618;28;20075;-86
2021/07/16 19:06:19;;;;;;;20.40;8.70;;;20.10;99.90;;;;;;12531647;28;20079;-85
2021/07/16 19:12:26;;;;;;;19.35;8.45;;;20.10;99.90;;;;;;12522413;28;20080;-85
2021/07/16 19:18:28;;;;;;;22.60;7.57;;;20.00;99.90;;;;;;12568174;28;20043;-85
2021/07/16 19:24:31;;;;;;;28.58;9.00;;;20.00;99.90;;;;;;12521471;28;20041;-85
2021/07/16 19:30:33;;;;;;;24.55;9.13;;;19.80;99.90;;;;;;12524377;28;20045;-85
2021/07/16 19:36:34;;;;;;;23.13;8.43;;;19.90;99.90;;;;;;12524645;28;20049;-85
2021/07/16 19:42:37;;;;;;;25.52;9.68;;;19.80;99.90;;;;;;12519454;28;20078;-85
2021/07/16 19:48:39;;;;;;;26.15;9.57;;;19.90;99.90;;;;;;12525489;28;20048;-85
2021/07/16 19:54:41;;;;;;;26.05;10.18;;;19.80;99.90;;;;;;12522415;28;20102;-85
2021/07/16 20:00:43;;;;;;;27.63;10.48;;;19.80;99.90;;;;;;12520746;28;20497;-85
2021/07/16 20:06:45;;;;;;;28.73;9.93;;;19.70;99.90;;;;;;12523784;28;20057;-85
2021/07/16 20:12:47;;;;;;;27.40;10.07;;;19.70;99.90;;;;;;12518545;28;20045;-84
2021/07/16 20:18:49;;;;;;;21.95;9.77;;;19.50;99.90;;;;;;12522717;28;20068;-85
2021/07/16 20:24:54;;;;;;;23.35;10.32;;;19.70;99.90;;;;;;12526018;28;20523;-85
2021/07/16 20:30:56;;;;;;;26.10;10.73;;;19.50;99.90;;;;;;12524574;28;20539;-84
2021/07/16 20:36:57;;;;;;;24.75;10.05;;;19.40;99.90;;;;;;12524706;28;20056;-86
2021/07/16 20:42:59;;;;;;;25.98;10.43;;;19.50;99.90;;;;;;12518039;28;20053;-85
2021/07/16 20:49:01;;;;;;;24.48;10.90;;;19.50;99.90;;;;;;12523287;28;20434;-85
2021/07/16 20:55:03;;;;;;;25.58;10.40;;;19.50;99.90;;;;;;12522193;28;20078;-85
2021/07/16 21:01:09;;;;;;;32.65;10.90;;;19.30;99.90;;;;;;12523231;28;20076;-85
2021/07/16 21:07:11;;;;;;;23.63;10.93;;;19.20;99.90;;;;;;12525616;28;20537;-85
2021/07/16 21:13:12;;;;;;;25.17;11.30;;;19.20;99.90;;;;;;12529757;28;20099;-84
2021/07/16 21:19:14;;;;;;;25.30;10.25;;;19.20;99.90;;;;;;12534615;28;20052;-84
2021/07/16 21:25:16;;;;;;;28.60;10.98;;;19.10;99.90;;;;;;12530063;28;20170;-85
2021/07/16 21:31:18;;;;;;;34.03;11.10;;;19.00;99.90;;;;;;12532162;28;20053;-85
2021/07/16 21:37:20;;;;;;;28.38;11.50;;;18.90;99.90;;;;;;12533085;28;20053;-84
2021/07/16 21:43:22;;;;;;;29.05;11.98;;;18.90;99.90;;;;;;12533104;28;20171;-85
2021/07/16 21:49:24;;;;;;;23.15;11.70;;;18.80;99.90;;;;;;12532863;28;20493;-84
2021/07/16 21:55:26;;;;;;;25.15;11.10;;;18.60;99.90;;;;;;12536453;28;20051;-84
2021/07/16 22:01:27;;;;;;;27.13;11.07;;;18.60;99.90;;;;;;12531678;28;20067;-85
2021/07/16 22:07:29;;;;;;;30.42;12.57;;;18.50;99.90;;;;;;12536433;28;20052;-85
2021/07/16 22:13:31;;;;;;;26.15;11.68;;;18.50;99.90;;;;;;12530987;28;20068;-84
2021/07/16 22:19:34;;;;;;;22.30;10.40;;;18.40;99.90;;;;;;12533599;28;20041;-85
2021/07/16 22:25:39;;;;;;;31.58;12.65;;;18.30;99.90;;;;;;12529061;28;20523;-85
2021/07/16 22:31:40;;;;;;;25.42;12.10;;;18.20;99.90;;;;;;12535302;28;20530;-85
2021/07/16 22:37:43;;;;;;;29.35;11.48;;;18.10;99.90;;;;;;12532906;28;20048;-85
2021/07/16 22:43:46;;;;;;;30.02;11.98;;;18.10;99.90;;;;;;12530322;28;20045;-85
2021/07/16 22:49:50;;;;;;;38.80;13.10;;;18.20;99.90;;;;;;12531036;28;20454;-85
2021/07/16 22:55:52;;;;;;;25.92;12.52;;;18.00;99.90;;;;;;12532389;28;20102;-84
2021/07/16 23:01:54;;;;;;;36.58;12.45;;;18.00;99.90;;;;;;12531512;28;20186;-84
2021/07/16 23:07:57;;;;;;;28.77;12.18;;;17.90;99.90;;;;;;12534626;28;20057;-84
2021/07/16 23:14:14;;;;;;;27.02;12.70;;;17.80;99.90;;;;;;12579572;28;20095;-85
2021/07/16 23:20:16;;;;;;;28.35;12.73;;;17.70;99.90;;;;;;12523770;28;20105;-85
2021/07/16 23:26:18;;;;;;;34.85;13.60;;;17.70;99.90;;;;;;12520926;28;20056;-85
2021/07/16 23:32:20;;;;;;;40.50;13.18;;;17.70;99.90;;;;;;12525188;28;20443;-84
2021/07/16 23:38:22;;;;;;;37.10;12.57;;;17.60;99.90;;;;;;12523162;28;20361;-84
2021/07/16 23:44:24;;;;;;;31.85;12.60;;;17.50;99.90;;;;;;12524463;28;20071;-86
2021/07/16 23:50:27;;;;;;;37.03;12.88;;;17.60;99.90;;;;;;12524456;28;20049;-86
2021/07/16 23:56:29;;;;;;;32.20;13.20;;;17.70;99.90;;;;;;12523113;28;20447;-84
